Terminal Aerodrome Forecast
Issued by NWS Buffalo, NY

Home | Current Version | Previous Version | Text Only | Print | Product List | Glossary On
Versions: 1 2 3 4 5 6 7 8 9 10 11 12 13 14 15 16 17 18 19 20 21 22 23 24 25 26 27 28
000
FTUS41 KBUF 172300
TAFBUF
TAF
KBUF 172332Z 1800/1824 25007KT P6SM SCT230
     FM180800 VRB03KT P6SM BKN040
     FM181400 05006KT P6SM BKN015
     FM182200 04007KT P6SM BKN025
     FM182300 04006KT P6SM SCT035=

USA.gov is the U.S. government's official web portal to all federal, state and local government web resources and services.